createdAt,value
2019-05-25T00:08:03.023Z,0.0
2019-05-25T00:18:17.130Z,0.0
2019-05-25T00:28:31.398Z,0.0
2019-05-25T00:38:45.339Z,0.0
2019-05-25T00:48:58.366Z,0.0
2019-05-25T00:59:11.489Z,0.0
2019-05-25T01:09:24.734Z,0.0
2019-05-25T01:20:08.618Z,0.0
2019-05-25T01:30:52.338Z,0.0
2019-05-25T01:41:05.889Z,0.0
2019-05-25T01:51:20.095Z,0.0
2019-05-25T02:01:34.015Z,0.0
2019-05-25T02:11:47.371Z,0.0
2019-05-25T02:22:02.067Z,0.0
2019-05-25T02:32:15.722Z,0.0
2019-05-25T02:42:29.243Z,0.0
2019-05-25T02:52:43.467Z,0.0
2019-05-25T03:02:57.997Z,0.0
2019-05-25T03:13:11.629Z,0.0
2019-05-25T03:23:25.065Z,5.0
2019-05-25T03:33:38.458Z,5.0
2019-05-25T03:43:52.220Z,10.0
2019-05-25T03:54:05.571Z,10.0
2019-05-25T04:04:50.325Z,10.0
2019-05-25T04:15:03.719Z,15.0
2019-05-25T04:25:17.851Z,20.0
2019-05-25T04:35:31.355Z,30.0
2019-05-25T04:45:45.308Z,60.0
2019-05-25T04:55:58.903Z,90.0
2019-05-25T05:06:13.083Z,120.0
2019-05-25T05:16:24.055Z,130.0
2019-05-25T05:26:37.702Z,135.0
2019-05-25T05:36:51.468Z,145.0
2019-05-25T05:47:03.212Z,145.0
2019-05-25T05:57:47.564Z,195.0
2019-05-25T06:08:00.751Z,195.0
2019-05-25T06:18:12.564Z,175.0
2019-05-25T06:28:26.193Z,275.0
2019-05-25T06:38:39.549Z,300.0
2019-05-25T06:48:53.360Z,325.0
2019-05-25T06:59:07.061Z,280.0
2019-05-25T07:09:20.245Z,170.0
2019-05-25T07:19:33.553Z,340.0
2019-05-25T07:29:47.864Z,555.0
2019-05-25T07:40:32.779Z,535.0
2019-05-25T07:50:47.405Z,475.0
2019-05-25T08:01:01.496Z,370.0
2019-05-25T08:11:13.306Z,290.0
2019-05-25T08:21:27.422Z,320.0
2019-05-25T08:31:41.385Z,370.0
2019-05-25T08:41:55.014Z,485.0
2019-05-25T08:52:40.490Z,510.0
2019-05-25T09:04:16.004Z,895.0
2019-05-25T09:15:05.859Z,430.0
2019-05-25T09:25:18.195Z,540.0
2019-05-25T09:35:34.133Z,495.0
2019-05-25T09:45:52.699Z,470.0
2019-05-25T09:56:10.717Z,490.0
2019-05-25T10:06:57.785Z,480.0
2019-05-25T10:17:13.803Z,725.0
2019-05-25T10:27:41.249Z,415.0
2019-05-25T10:37:56.293Z,815.0
2019-05-25T10:48:15.932Z,415.0
2019-05-25T10:59:04.558Z,510.0
2019-05-25T11:10:07.661Z,595.0
2019-05-25T11:20:56.370Z,1005.0
2019-05-25T11:32:04.264Z,985.0
2019-05-25T11:42:16.593Z,2000.0
2019-05-25T11:52:34.043Z,665.0
2019-05-25T12:02:50.937Z,2530.0
2019-05-25T12:13:38.787Z,1000.0
2019-05-25T12:23:51.810Z,2125.0
2019-05-25T12:34:37.342Z,2260.0
2019-05-25T12:44:53.947Z,2180.0
2019-05-25T12:55:39.248Z,2145.0
2019-05-25T13:05:54.335Z,2030.0
2019-05-25T13:16:10.761Z,1140.0
2019-05-25T13:26:56.417Z,1865.0
2019-05-25T13:37:12.977Z,595.0
2019-05-25T13:47:27.625Z,525.0
2019-05-25T13:58:25.372Z,550.0
2019-05-25T14:09:26.533Z,535.0
2019-05-25T14:19:53.855Z,980.0
2019-05-25T14:30:43.804Z,1300.0
2019-05-25T14:41:29.027Z,415.0
2019-05-25T14:52:50.625Z,425.0
2019-05-25T15:03:05.667Z,385.0
2019-05-25T15:13:54.471Z,260.0
2019-05-25T15:25:42.304Z,360.0
2019-05-25T15:36:00.746Z,320.0
2019-05-25T15:46:55.200Z,300.0
2019-05-25T15:57:19.511Z,265.0
2019-05-25T16:08:14.609Z,205.0
2019-05-25T16:18:42.156Z,215.0
2019-05-25T16:29:34.313Z,245.0
2019-05-25T16:42:17.115Z,240.0
2019-05-25T16:53:06.465Z,235.0
2019-05-25T17:03:28.224Z,250.0
2019-05-25T17:16:43.710Z,180.0
2019-05-25T17:26:59.628Z,160.0
2019-05-25T17:37:47.272Z,150.0
2019-05-25T17:48:34.311Z,135.0
2019-05-25T17:58:50.277Z,120.0
2019-05-25T18:09:01.894Z,110.0
2019-05-25T18:19:18.679Z,90.0
2019-05-25T18:29:37.424Z,80.0
2019-05-25T18:55:27.072Z,40.0
2019-05-25T19:06:26.258Z,25.0
2019-05-25T19:17:18.727Z,15.0
2019-05-25T19:28:18.639Z,5.0
2019-05-25T19:38:37.340Z,0.0
2019-05-25T19:48:54.593Z,0.0
2019-05-25T19:59:45.363Z,0.0
2019-05-25T20:10:33.258Z,0.0
2019-05-25T20:22:00.902Z,0.0
2019-05-25T20:32:48.519Z,0.0
2019-05-25T20:43:34.701Z,0.0
2019-05-25T20:53:54.418Z,0.0
2019-05-25T21:04:43.802Z,0.0
2019-05-25T21:14:55.391Z,0.0
2019-05-25T21:25:11.443Z,0.0
2019-05-25T21:35:25.832Z,0.0
2019-05-25T21:46:14.471Z,0.0
2019-05-25T21:56:34.166Z,0.0
2019-05-25T22:06:49.120Z,0.0
2019-05-25T22:17:36.722Z,0.0
2019-05-25T22:27:50.948Z,0.0
2019-05-25T22:38:05.183Z,0.0
2019-05-25T22:48:23.065Z,0.0
2019-05-25T22:58:39.628Z,0.0
2019-05-25T23:08:56.945Z,0.0
2019-05-25T23:19:11.070Z,0.0
2019-05-25T23:29:25.566Z,0.0
2019-05-25T23:40:13.862Z,0.0
2019-05-25T23:51:00.753Z,0.0
